Time;durP1;ratioP1;P1;durP2;ratioP2;P2;SDS_P1;SDS_P2;PMS_P1;PMS_P2;Temp;Humidity;BMP_temperature;BMP_pressure;BME280_temperature;BME280_humidity;BME280_pressure;Samples;Min_cycle;Max_cycle;Signal;HPM_P1;HPM_P2
2022/11/24 00:03:33;;;;;;;;;;;6.70;99.90;;;;;;12580679;28;19929;-84
2022/11/24 00:09:35;;;;;;;;;;;6.70;99.90;;;;;;12584820;28;19924;-84
2022/11/24 00:15:37;;;;;;;;;;;6.80;99.90;;;;;;12591649;28;19981;-84
2022/11/24 00:21:38;;;;;;;;;;;6.80;99.90;;;;;;12595002;28;20387;-84
2022/11/24 00:27:40;;;;;;;;;;;6.80;99.90;;;;;;12597719;28;20419;-84
2022/11/24 00:33:42;;;;;;;;;;;6.90;99.90;;;;;;12589745;28;19925;-84
2022/11/24 00:39:43;;;;;;;;;;;7.00;99.90;;;;;;12572668;28;19931;-84
2022/11/24 00:45:45;;;;;;;;;;;7.00;99.90;;;;;;12571767;28;19925;-84
2022/11/24 00:51:47;;;;;;;;;;;7.10;99.90;;;;;;12599632;28;20380;-84
2022/11/24 00:57:48;;;;;;;;;;;7.10;99.90;;;;;;12589972;28;19931;-84
2022/11/24 01:03:50;;;;;;;;;;;7.10;99.90;;;;;;12578529;28;19932;-84
2022/11/24 01:09:52;;;;;;;;;;;7.20;99.90;;;;;;12581593;28;20300;-84
2022/11/24 01:15:53;;;;;;;;;;;7.30;99.90;;;;;;12588189;28;19939;-84
2022/11/24 01:21:55;;;;;;;;;;;7.20;99.90;;;;;;12590607;28;19928;-84
2022/11/24 01:27:57;;;;;;;;;;;7.10;99.90;;;;;;12584360;28;19935;-83
2022/11/24 01:33:58;;;;;;;;;;;7.10;99.90;;;;;;12590149;28;19932;-84
2022/11/24 01:40:00;;;;;;;;;;;7.00;99.90;;;;;;12574798;28;19932;-84
2022/11/24 01:46:11;;;;;;;;;;;6.90;99.90;;;;;;12571992;28;20281;-84
2022/11/24 01:52:18;;;;;;;;;;;6.80;99.90;;;;;;12573541;28;20312;-83
2022/11/24 01:58:22;;;;;;;;;;;6.80;99.90;;;;;;12574368;28;19928;-84
2022/11/24 02:04:26;;;;;;;;;;;6.90;99.90;;;;;;12577570;28;19929;-84
2022/11/24 02:10:28;;;;;;;;;;;6.80;99.90;;;;;;12583116;28;19925;-84
2022/11/24 02:16:31;;;;;;;;;;;6.70;99.90;;;;;;12571813;28;19932;-84
2022/11/24 02:22:51;;;;;;;;;;;6.60;99.90;;;;;;12579801;28;19932;-84
2022/11/24 02:28:53;;;;;;;;;;;6.60;99.90;;;;;;12580417;28;19931;-84
2022/11/24 02:34:58;;;;;;;;;;;6.60;99.90;;;;;;12584823;28;19928;-84
2022/11/24 02:41:05;;;;;;;;;;;6.60;99.90;;;;;;12566972;28;19933;-84
2022/11/24 02:47:08;;;;;;;;;;;6.60;99.90;;;;;;12584795;28;19928;-84
2022/11/24 02:53:10;;;;;;;;;;;6.60;99.90;;;;;;12591771;28;19928;-84
2022/11/24 02:59:11;;;;;;;;;;;6.50;99.90;;;;;;12570527;28;19932;-84
2022/11/24 03:05:13;;;;;;;;;;;6.50;99.90;;;;;;12577224;28;20346;-84
2022/11/24 03:11:15;;;;;;;;;;;6.50;99.90;;;;;;12586888;28;19928;-84
2022/11/24 03:17:17;;;;;;;;;;;6.50;99.90;;;;;;12588424;28;19924;-84
2022/11/24 03:23:18;;;;;;;;;;;6.50;99.90;;;;;;12563455;28;19925;-84
2022/11/24 03:29:20;;;;;;;;;;;6.50;99.90;;;;;;12587783;28;19944;-84
2022/11/24 03:35:22;;;;;;;;;;;6.50;99.90;;;;;;12576645;28;19936;-84
2022/11/24 03:41:24;;;;;;;;;;;6.60;99.90;;;;;;12564760;28;19948;-84
2022/11/24 03:47:25;;;;;;;;;;;6.60;99.90;;;;;;12588747;28;19932;-84
2022/11/24 03:53:28;;;;;;;;;;;6.70;99.90;;;;;;12580007;28;19932;-84
2022/11/24 03:59:30;;;;;;;;;;;6.70;99.90;;;;;;12564732;28;20371;-84
2022/11/24 04:05:32;;;;;;;;;;;6.70;99.90;;;;;;12605043;28;20364;-85
2022/11/24 04:17:54;;;;;;;;;;;6.70;99.90;;;;;;12582306;28;20372;-84
2022/11/24 04:23:56;;;;;;;;;;;6.60;99.90;;;;;;12596618;28;19928;-84
2022/11/24 04:29:58;;;;;;;;;;;6.70;99.90;;;;;;12581799;28;19936;-84
2022/11/24 04:35:59;;;;;;;;;;;6.90;99.90;;;;;;12573045;28;19925;-84
2022/11/24 04:42:01;;;;;;;;;;;7.00;99.90;;;;;;12586805;28;19932;-84
2022/11/24 04:48:03;;;;;;;;;;;7.20;99.90;;;;;;12560610;28;19928;-84
2022/11/24 04:54:05;;;;;;;;;;;7.20;99.90;;;;;;12570844;28;19931;-84
2022/11/24 05:00:07;;;;;;;;;;;7.20;99.90;;;;;;12584815;28;20555;-84
2022/11/24 05:06:09;;;;;;;;;;;7.20;99.90;;;;;;12579598;28;19942;-84
2022/11/24 05:12:11;;;;;;;;;;;7.30;99.90;;;;;;12584881;28;19933;-84
2022/11/24 05:18:15;;;;;;;;;;;7.40;99.90;;;;;;12560462;28;19925;-84
2022/11/24 05:24:16;;;;;;;;;;;7.50;99.90;;;;;;12570678;28;19933;-84
2022/11/24 05:30:18;;;;;;;;;;;7.30;99.90;;;;;;12592952;28;19924;-84
2022/11/24 05:42:40;;;;;;;;;;;7.20;99.90;;;;;;12565571;28;19987;-84
2022/11/24 05:48:48;;;;;;;;;;;7.10;99.90;;;;;;12565858;28;20002;-84
2022/11/24 05:54:50;;;;;;;;;;;7.20;99.90;;;;;;12565310;28;20300;-84
2022/11/24 06:00:52;;;;;;;;;;;7.20;99.90;;;;;;12563980;28;19936;-84
2022/11/24 06:06:53;;;;;;;;;;;7.30;99.90;;;;;;12590508;28;19928;-84
2022/11/24 06:12:55;;;;;;;;;;;7.30;99.90;;;;;;12564203;28;19924;-84
2022/11/24 06:18:58;;;;;;;;;;;7.20;99.90;;;;;;12556495;28;19925;-84
2022/11/24 06:25:00;;;;;;;;;;;7.30;99.90;;;;;;12587517;28;19925;-84
2022/11/24 06:31:03;;;;;;;;;;;7.30;99.90;;;;;;12582824;28;19928;-84
2022/11/24 06:37:04;;;;;;;;;;;7.20;99.90;;;;;;12576872;28;19932;-84
2022/11/24 06:43:07;;;;;;;;;;;7.20;99.90;;;;;;12578959;28;19934;-84
2022/11/24 06:49:09;;;;;;;;;;;7.30;99.90;;;;;;12554551;28;19978;-84
2022/11/24 06:55:10;;;;;;;;;;;7.30;99.90;;;;;;12557655;28;19935;-84
2022/11/24 07:01:16;;;;;;;;;;;7.50;99.90;;;;;;12578899;28;19939;-85
2022/11/24 07:07:18;;;;;;;;;;;7.40;99.90;;;;;;12588586;28;19928;-85
2022/11/24 07:13:20;;;;;;;;;;;7.50;99.90;;;;;;12566781;28;19928;-85
2022/11/24 07:19:21;;;;;;;;;;;7.50;99.90;;;;;;12574744;28;20380;-85
2022/11/24 07:25:25;;;;;;;;;;;7.50;99.90;;;;;;12589693;28;19940;-85
2022/11/24 07:31:27;;;;;;;;;;;7.30;99.90;;;;;;12567046;28;19925;-85
2022/11/24 07:37:29;;;;;;;;;;;7.50;99.90;;;;;;12576963;28;19928;-85
2022/11/24 07:43:33;;;;;;;;;;;7.50;99.90;;;;;;12590488;28;20384;-85
2022/11/24 07:49:35;;;;;;;;;;;7.50;99.90;;;;;;12572842;28;19928;-85
2022/11/24 07:55:36;;;;;;;;;;;7.50;99.90;;;;;;12570061;28;19931;-85
2022/11/24 08:01:38;;;;;;;;;;;7.40;99.90;;;;;;12559932;28;19932;-85
2022/11/24 08:07:40;;;;;;;;;;;7.40;99.90;;;;;;12558345;28;19929;-85
2022/11/24 08:13:42;;;;;;;;;;;7.50;99.90;;;;;;12569028;28;19928;-86
2022/11/24 08:19:44;;;;;;;;;;;7.40;99.90;;;;;;12578076;28;20395;-85
2022/11/24 08:25:45;;;;;;;;;;;7.40;99.90;;;;;;12595318;28;19929;-85
2022/11/24 08:31:47;;;;;;;;;;;7.40;99.90;;;;;;12586457;28;19957;-85
2022/11/24 08:37:49;;;;;;;;;;;7.40;99.90;;;;;;12556076;28;19925;-85
2022/11/24 08:43:50;;;;;;;;;;;7.60;99.90;;;;;;12597294;28;19924;-85
2022/11/24 08:49:52;;;;;;;;;;;7.70;99.90;;;;;;12582512;28;20407;-85
2022/11/24 08:55:59;;;;;;;;;;;7.70;99.90;;;;;;12576041;28;20380;-85
2022/11/24 09:02:01;;;;;;;;;;;7.70;99.90;;;;;;12588101;28;20022;-85
2022/11/24 09:08:03;;;;;;;;;;;7.90;99.90;;;;;;12584199;28;19993;-85
2022/11/24 09:14:04;;;;;;;;;;;8.10;99.90;;;;;;12574222;28;19925;-85
2022/11/24 09:20:06;;;;;;;;;;;8.40;99.90;;;;;;12584702;28;19928;-85
2022/11/24 09:26:16;;;;;;;;;;;8.40;99.90;;;;;;12581250;28;19928;-85
2022/11/24 09:32:17;;;;;;;;;;;8.40;99.90;;;;;;12569388;28;19936;-85
2022/11/24 09:38:19;;;;;;;;;;;8.50;99.90;;;;;;12575757;28;19929;-85
2022/11/24 09:44:40;;;;;;;;;;;8.50;99.90;;;;;;12571251;28;19932;-86
2022/11/24 09:50:42;;;;;;;;;;;8.60;99.90;;;;;;12578429;28;19925;-85
2022/11/24 09:56:45;;;;;;;;;;;8.60;99.90;;;;;;12560294;28;19925;-85
2022/11/24 10:02:47;;;;;;;;;;;8.70;99.90;;;;;;12563254;28;19932;-86
2022/11/24 10:09:08;;;;;;;;;;;8.70;99.90;;;;;;12580637;28;19933;-86
2022/11/24 10:15:18;;;;;;;;;;;8.80;99.90;;;;;;12577249;28;19925;-86
2022/11/24 10:21:34;;;;;;;;;;;8.80;99.90;;;;;;12598179;28;20398;-86
2022/11/24 10:27:38;;;;;;;;;;;8.90;99.90;;;;;;12586102;28;20295;-86
2022/11/24 10:33:40;;;;;;;;;;;8.80;99.90;;;;;;12548593;28;20401;-86
2022/11/24 10:39:57;;;;;;;;;;;8.70;99.90;;;;;;12585226;28;19938;-85
2022/11/24 10:46:08;;;;;;;;;;;8.70;99.90;;;;;;12574188;28;20381;-85
2022/11/24 10:52:15;;;;;;;;;;;8.70;99.90;;;;;;12567109;28;19925;-86
2022/11/24 10:58:20;;;;;;;;;;;8.70;99.90;;;;;;12570324;28;19932;-86
2022/11/24 11:04:27;;;;;;;;;;;8.70;99.90;;;;;;12581761;28;19924;-86
2022/11/24 11:10:28;;;;;;;;;;;8.50;99.90;;;;;;12564397;28;19928;-86
2022/11/24 11:16:38;;;;;;;;;;;8.40;99.90;;;;;;12576227;28;19924;-86
2022/11/24 11:22:41;;;;;;;;;;;8.20;99.90;;;;;;12569344;28;19936;-86
2022/11/24 11:29:02;;;;;;;;;;;8.20;99.90;;;;;;12550193;28;19939;-85
2022/11/24 11:35:25;;;;;;;;;;;8.20;99.90;;;;;;12546518;28;20281;-86
2022/11/24 11:41:29;;;;;;;;;;;8.20;99.90;;;;;;12566055;28;19928;-85
2022/11/24 11:47:41;;;;;;;;;;;8.20;99.90;;;;;;12561285;28;19970;-86
2022/11/24 11:53:52;;;;;;;;;;;8.30;99.90;;;;;;12566441;28;19933;-86
2022/11/24 12:00:00;;;;;;;;;;;8.40;99.90;;;;;;12580611;28;19974;-86
2022/11/24 12:06:14;;;;;;;;;;;8.40;99.90;;;;;;12585322;28;19931;-85
2022/11/24 12:12:32;;;;;;;;;;;8.40;99.90;;;;;;12575679;28;19924;-85
2022/11/24 12:18:52;;;;;;;;;;;8.30;99.90;;;;;;12586705;28;19932;-85
2022/11/24 12:25:16;;;;;;;;;;;8.50;99.90;;;;;;12572636;28;19928;-85
2022/11/24 12:31:35;;;;;;;;;;;8.80;99.90;;;;;;12568964;28;19928;-85
2022/11/24 12:37:40;;;;;;;;;;;8.90;99.90;;;;;;12562663;28;19924;-85
2022/11/24 12:43:48;;;;;;;;;;;8.80;99.90;;;;;;12593383;28;19932;-85
2022/11/24 12:50:09;;;;;;;;;;;8.70;99.90;;;;;;12567561;28;19925;-85
2022/11/24 12:56:12;;;;;;;;;;;8.60;99.90;;;;;;12587265;28;19925;-85
2022/11/24 13:02:32;;;;;;;;;;;8.50;99.90;;;;;;12574180;28;19951;-85
2022/11/24 13:08:35;;;;;;;;;;;8.50;99.90;;;;;;12579699;28;19932;-85
2022/11/24 13:14:38;;;;;;;;;;;8.50;99.90;;;;;;12577970;28;19933;-85
2022/11/24 13:20:39;;;;;;;;;;;8.50;99.90;;;;;;12563419;28;19935;-85
2022/11/24 13:26:41;;;;;;;;;;;8.60;99.90;;;;;;12583058;28;20356;-85
2022/11/24 13:32:42;;;;;;;;;;;8.60;99.90;;;;;;12576889;28;19932;-85
2022/11/24 13:38:44;;;;;;;;;;;8.60;99.90;;;;;;12566469;28;19929;-86
2022/11/24 13:44:53;;;;;;;;;;;8.50;99.90;;;;;;12594269;28;19931;-85
2022/11/24 13:50:54;;;;;;;;;;;8.50;99.90;;;;;;12588132;28;19935;-85
2022/11/24 13:57:16;;;;;;;;;;;8.50;99.90;;;;;;12572882;28;20451;-85
2022/11/24 14:03:29;;;;;;;;;;;8.40;99.90;;;;;;12565904;28;19932;-85
2022/11/24 14:09:44;;;;;;;;;;;8.50;99.90;;;;;;12560447;28;19936;-85
2022/11/24 14:16:05;;;;;;;;;;;8.50;99.90;;;;;;12566578;28;20363;-85
2022/11/24 14:22:33;;;;;;;;;;;8.40;99.90;;;;;;12576793;28;19983;-85
2022/11/24 14:28:34;;;;;;;;;;;8.30;99.90;;;;;;12550422;28;19935;-85
2022/11/24 14:34:36;;;;;;;;;;;8.30;99.90;;;;;;12580977;28;19925;-85
2022/11/24 14:40:38;;;;;;;;;;;8.30;99.90;;;;;;12576293;28;19955;-85
2022/11/24 14:46:40;;;;;;;;;;;8.10;99.90;;;;;;12581991;28;20406;-85
2022/11/24 14:52:52;;;;;;;;;;;8.00;99.90;;;;;;12571762;28;19928;-85
2022/11/24 14:58:54;;;;;;;;;;;7.90;99.90;;;;;;12567061;28;19924;-85
2022/11/24 15:04:57;;;;;;;;;;;7.90;99.90;;;;;;12558244;28;19924;-85
2022/11/24 15:11:05;;;;;;;;;;;7.90;99.90;;;;;;12588987;28;19929;-85
2022/11/24 15:17:13;;;;;;;;;;;7.80;99.90;;;;;;12551660;28;19936;-85
2022/11/24 15:23:28;;;;;;;;;;;7.70;99.90;;;;;;12580452;28;20380;-85
2022/11/24 15:29:30;;;;;;;;;;;7.70;99.90;;;;;;12564774;28;20338;-85
2022/11/24 15:35:32;;;;;;;;;;;7.60;99.90;;;;;;12559956;28;19928;-85
2022/11/24 15:41:33;;;;;;;;;;;7.50;99.90;;;;;;12572516;28;19933;-85
2022/11/24 15:47:35;;;;;;;;;;;7.30;99.90;;;;;;12592278;28;19932;-85
2022/11/24 15:53:38;;;;;;;;;;;7.30;99.90;;;;;;12597805;28;19924;-85
2022/11/24 15:59:40;;;;;;;;;;;7.20;99.90;;;;;;12600785;28;20291;-85
2022/11/24 16:05:42;;;;;;;;;;;7.10;99.90;;;;;;12579484;28;19932;-84
2022/11/24 16:11:43;;;;;;;;;;;7.20;99.90;;;;;;12573558;28;19925;-84
2022/11/24 16:17:45;;;;;;;;;;;7.10;99.90;;;;;;12595034;28;19930;-84
2022/11/24 16:23:47;;;;;;;;;;;7.10;99.90;;;;;;12586688;28;19967;-84
2022/11/24 16:29:49;;;;;;;;;;;7.10;99.90;;;;;;12588517;28;20407;-84
2022/11/24 16:35:51;;;;;;;;;;;7.00;99.90;;;;;;12593945;28;19924;-84
2022/11/24 16:41:52;;;;;;;;;;;7.00;99.90;;;;;;12571908;28;19924;-84
2022/11/24 16:47:54;;;;;;;;;;;7.00;99.90;;;;;;12570831;28;20361;-84
2022/11/24 16:53:59;;;;;;;;;;;7.00;99.90;;;;;;12591323;28;19940;-84
2022/11/24 17:00:02;;;;;;;;;;;6.90;99.90;;;;;;12585102;28;19925;-84
2022/11/24 17:06:09;;;;;;;;;;;6.80;99.90;;;;;;12588163;28;19924;-85
2022/11/24 17:12:10;;;;;;;;;;;6.90;99.90;;;;;;12610008;28;19975;-84
2022/11/24 17:18:12;;;;;;;;;;;6.90;99.90;;;;;;12576536;28;20010;-84
2022/11/24 17:24:25;;;;;;;;;;;7.00;99.90;;;;;;12581499;28;20007;-84
2022/11/24 17:30:27;;;;;;;;;;;6.90;99.90;;;;;;12628169;28;19955;-84
2022/11/24 17:36:29;;;;;;;;;;;6.90;99.90;;;;;;12635249;28;19952;-85
2022/11/24 17:42:31;;;;;;;;;;;6.80;99.90;;;;;;12632757;28;19925;-85
2022/11/24 17:48:33;;;;;;;;;;;6.70;99.90;;;;;;12617776;28;19924;-85
2022/11/24 17:54:35;;;;;;;;;;;6.60;99.90;;;;;;12634334;28;20140;-85
2022/11/24 18:00:57;;;;;;;;;;;6.50;99.90;;;;;;12639772;28;19992;-86
2022/11/24 18:06:59;;;;;;;;;;;6.50;99.90;;;;;;12621116;28;19925;-84
2022/11/24 18:13:01;;;;;;;;;;;6.50;99.90;;;;;;12600870;28;19932;-84
2022/11/24 18:19:03;;;;;;;;;;;6.60;99.90;;;;;;12578204;28;19973;-84
2022/11/24 18:25:10;;;;;;;;;;;6.50;99.90;;;;;;12587851;28;19924;-83
2022/11/24 18:31:13;;;;;;;;;;;6.30;99.90;;;;;;12597867;28;19935;-84
2022/11/24 18:37:15;;;;;;;;;;;6.40;99.90;;;;;;12575488;28;19928;-84
2022/11/24 18:43:16;;;;;;;;;;;6.40;99.90;;;;;;12562349;28;20403;-84
2022/11/24 18:49:18;;;;;;;;;;;6.40;99.90;;;;;;12583475;28;19931;-84
2022/11/24 18:55:20;;;;;;;;;;;6.60;99.90;;;;;;12579148;28;20010;-84
2022/11/24 19:01:23;;;;;;;;;;;6.60;99.90;;;;;;12576280;28;19929;-84
2022/11/24 19:07:25;;;;;;;;;;;6.60;99.90;;;;;;12580897;28;20006;-84
2022/11/24 19:13:27;;;;;;;;;;;6.60;99.90;;;;;;12572700;28;19929;-84
2022/11/24 19:19:32;;;;;;;;;;;6.50;99.90;;;;;;12569616;28;19929;-84
2022/11/24 19:25:34;;;;;;;;;;;6.40;99.90;;;;;;12561898;28;19925;-83
2022/11/24 19:31:38;;;;;;;;;;;6.40;99.90;;;;;;12586359;28;20380;-83
2022/11/24 19:37:40;;;;;;;;;;;6.40;99.90;;;;;;12570155;28;19955;-84
2022/11/24 19:43:41;;;;;;;;;;;6.30;99.90;;;;;;12577090;28;19947;-84
2022/11/24 19:49:43;;;;;;;;;;;6.40;99.90;;;;;;12561318;28;19924;-84
2022/11/24 19:55:45;;;;;;;;;;;6.30;99.90;;;;;;12559804;28;20376;-84
2022/11/24 20:01:46;;;;;;;;;;;6.30;99.90;;;;;;12568457;28;19929;-83
2022/11/24 20:07:48;;;;;;;;;;;6.30;99.90;;;;;;12583767;28;20015;-84
2022/11/24 20:13:50;;;;;;;;;;;6.30;99.90;;;;;;12581443;28;19924;-83
2022/11/24 20:19:52;;;;;;;;;;;6.30;99.90;;;;;;12586313;28;20296;-84
2022/11/24 20:25:53;;;;;;;;;;;6.20;99.90;;;;;;12570822;28;19928;-84
2022/11/24 20:31:55;;;;;;;;;;;6.20;99.90;;;;;;12586511;28;19931;-84
2022/11/24 20:37:57;;;;;;;;;;;6.30;99.90;;;;;;12575622;28;19950;-84
2022/11/24 20:44:00;;;;;;;;;;;6.30;99.90;;;;;;12582613;28;19932;-84
2022/11/24 20:50:02;;;;;;;;;;;6.30;99.90;;;;;;12589279;28;19925;-84
2022/11/24 20:56:05;;;;;;;;;;;6.30;99.90;;;;;;12576850;28;19929;-84
2022/11/24 21:02:08;;;;;;;;;;;6.20;99.90;;;;;;12580047;28;19929;-84
2022/11/24 21:08:09;;;;;;;;;;;6.10;99.90;;;;;;12600253;28;19970;-84
2022/11/24 21:14:11;;;;;;;;;;;6.10;99.90;;;;;;12589321;28;20396;-84
2022/11/24 21:20:13;;;;;;;;;;;6.10;99.90;;;;;;12571769;28;19924;-84
2022/11/24 21:26:15;;;;;;;;;;;6.30;99.90;;;;;;12589988;28;19928;-84
2022/11/24 21:32:17;;;;;;;;;;;6.20;99.90;;;;;;12579431;28;19959;-84
2022/11/24 21:38:19;;;;;;;;;;;6.20;99.90;;;;;;12573785;28;19936;-83
2022/11/24 21:44:21;;;;;;;;;;;6.10;99.90;;;;;;12583098;28;20284;-84
2022/11/24 21:50:22;;;;;;;;;;;6.00;99.90;;;;;;12567017;28;19932;-84
2022/11/24 21:56:24;;;;;;;;;;;6.00;99.90;;;;;;12584884;28;20018;-84
2022/11/24 22:02:26;;;;;;;;;;;6.00;99.90;;;;;;12559768;28;19928;-84
2022/11/24 22:08:28;;;;;;;;;;;6.00;99.90;;;;;;12576869;28;20253;-84
2022/11/24 22:14:30;;;;;;;;;;;6.10;99.90;;;;;;12574969;28;20292;-84
2022/11/24 22:20:37;;;;;;;;;;;6.10;99.90;;;;;;12568399;28;20062;-84
2022/11/24 22:26:38;;;;;;;;;;;6.10;99.90;;;;;;12583240;28;19931;-84
2022/11/24 22:32:40;;;;;;;;;;;6.00;99.90;;;;;;12583133;28;19943;-84
2022/11/24 22:38:42;;;;;;;;;;;6.10;99.90;;;;;;12561412;28;19924;-84
2022/11/24 22:44:43;;;;;;;;;;;6.10;99.90;;;;;;12569804;28;21380;-83
2022/11/24 22:50:45;;;;;;;;;;;6.20;99.90;;;;;;12561827;28;20392;-84
2022/11/24 22:56:47;;;;;;;;;;;6.20;99.90;;;;;;12571415;28;19935;-84
2022/11/24 23:02:48;;;;;;;;;;;6.40;99.90;;;;;;12563685;28;19924;-84
2022/11/24 23:08:51;;;;;;;;;;;6.20;99.90;;;;;;12580867;28;19957;-83
2022/11/24 23:14:52;;;;;;;;;;;6.20;99.90;;;;;;12572041;28;19929;-84
2022/11/24 23:20:54;;;;;;;;;;;6.10;99.90;;;;;;12573127;28;19959;-84
2022/11/24 23:26:56;;;;;;;;;;;6.00;99.90;;;;;;12601496;28;20375;-84
2022/11/24 23:32:57;;;;;;;;;;;5.90;99.90;;;;;;12596484;28;19965;-84
2022/11/24 23:39:07;;;;;;;;;;;6.00;99.90;;;;;;12559006;28;19925;-84
2022/11/24 23:45:09;;;;;;;;;;;5.90;99.90;;;;;;12566112;28;19924;-84
2022/11/24 23:51:15;;;;;;;;;;;6.00;99.90;;;;;;12562136;28;19958;-84
2022/11/24 23:57:17;;;;;;;;;;;6.00;99.90;;;;;;12584233;28;20536;-84
